CPM5 weather

Volk Airport
Tottenham, Ontario, Canada

Public forecast

Using degrees Celsius for public forecast. Weather courtesy of forecast.io.

METAR (pilot weather report)

Closest report is CFB Borden, 17.7 nm (32.7 km) NNW. Retrieved 2019/03/23 19:00 UTC (4 minutes ago):

CYBN 231900Z AUTO 34007KT 250V010 9SM FEW094 03/M10 A3016 RMK PCPN 0.5MM PAST HR SLP224

TAF (pilot weather forecast)

Closest forecast is CFB Borden, 17.7 nm (32.7 km) NNW. Retrieved 2019/03/23 18:33 UTC (31 minutes ago):

TAF TAF CYBN 231730Z 2318/2406 33010G20KT P6SM SKC BECMG 2322/2324 26008KT RMK FCST BASED ON AUTO OBS. FCST BASED ON OBS OBTAINED FM OTHER SOURCES. NXT FCST BY 240000Z